Time;durP1;ratioP1;P1;durP2;ratioP2;P2;SDS_P1;SDS_P2;PMS_P1;PMS_P2;Temp;Humidity;BMP_temperature;BMP_pressure;BME280_temperature;BME280_humidity;BME280_pressure;Samples;Min_cycle;Max_cycle;Signal;HPM_P1;HPM_P2
2023/08/04 00:01:22;;;;;;;4.10;1.10;;;17.40;99.90;;;;;;5070236;28;20456;-47
2023/08/04 00:03:47;;;;;;;3.67;1.30;;;17.30;99.90;;;;;;5071798;28;20033;-49
2023/08/04 00:06:13;;;;;;;3.70;1.30;;;17.30;99.90;;;;;;5071722;28;20033;-51
2023/08/04 00:08:38;;;;;;;3.85;1.40;;;17.30;99.90;;;;;;5071629;28;20029;-47
2023/08/04 00:11:04;;;;;;;6.13;1.40;;;17.20;99.90;;;;;;5071663;28;20028;-52
2023/08/04 00:13:31;;;;;;;4.13;1.25;;;17.20;99.90;;;;;;5071788;28;20021;-50
2023/08/04 00:16:07;;;;;;;8.02;1.63;;;17.30;99.90;;;;;;5071458;28;20526;-50
2023/08/04 00:18:32;;;;;;;2.70;1.40;;;17.20;99.90;;;;;;5071133;28;20024;-47
2023/08/04 00:20:58;;;;;;;1.02;1.00;;;17.20;99.90;;;;;;5071472;28;20020;-53
2023/08/04 00:23:23;;;;;;;2.75;1.45;;;17.20;99.90;;;;;;5071642;28;20384;-50
2023/08/04 00:25:49;;;;;;;6.38;1.45;;;17.10;99.90;;;;;;5071377;28;20036;-47
2023/08/04 00:28:15;;;;;;;2.33;1.02;;;17.10;99.90;;;;;;5071437;28;20488;-48
2023/08/04 00:30:41;;;;;;;3.42;1.90;;;17.20;99.90;;;;;;5071370;28;20035;-47
2023/08/04 00:33:07;;;;;;;2.55;1.30;;;17.10;99.90;;;;;;5071757;28;20031;-49
2023/08/04 00:35:33;;;;;;;3.33;1.38;;;17.10;99.90;;;;;;5071447;28;20064;-48
2023/08/04 00:37:58;;;;;;;2.47;1.30;;;17.10;99.90;;;;;;5071636;28;20437;-53
2023/08/04 00:40:24;;;;;;;3.08;1.48;;;17.20;99.90;;;;;;5071237;28;20056;-50
2023/08/04 00:42:50;;;;;;;3.55;1.58;;;17.20;99.90;;;;;;5071382;28;20100;-48
2023/08/04 00:45:15;;;;;;;5.88;1.70;;;17.20;99.90;;;;;;5071498;28;20537;-51
2023/08/04 00:47:41;;;;;;;2.03;1.25;;;17.20;99.90;;;;;;5071507;28;20111;-50
2023/08/04 00:50:08;;;;;;;3.63;1.65;;;17.20;99.90;;;;;;5071114;28;20552;-52
2023/08/04 00:52:35;;;;;;;2.92;1.52;;;17.30;99.90;;;;;;5071340;28;20023;-47
2023/08/04 00:55:01;;;;;;;2.88;1.40;;;17.30;99.90;;;;;;5071275;28;20017;-50
2023/08/04 00:57:26;;;;;;;5.10;1.50;;;17.30;99.90;;;;;;5069525;28;20035;-51
2023/08/04 00:59:55;;;;;;;6.72;1.92;;;17.30;99.90;;;;;;5071514;28;20029;-49
2023/08/04 01:02:20;;;;;;;1.95;1.55;;;17.30;99.90;;;;;;5071271;28;20498;-49
2023/08/04 01:04:46;;;;;;;1.92;1.40;;;17.30;99.90;;;;;;5071160;28;20045;-50
2023/08/04 01:07:22;;;;;;;2.50;1.20;;;17.20;99.90;;;;;;5071143;28;20502;-50
2023/08/04 01:10:16;;;;;;;2.58;1.20;;;17.20;99.90;;;;;;5070719;28;20025;-51
2023/08/04 01:13:00;;;;;;;6.40;1.45;;;17.20;99.90;;;;;;5071175;28;20070;-47
2023/08/04 01:15:27;;;;;;;16.45;2.25;;;17.20;99.90;;;;;;5070939;28;20108;-52
2023/08/04 01:17:56;;;;;;;2.38;1.83;;;17.20;99.90;;;;;;5071035;28;20466;-46
2023/08/04 01:20:23;;;;;;;6.60;1.80;;;17.10;99.90;;;;;;5070510;28;20024;-49
2023/08/04 01:22:49;;;;;;;3.65;1.80;;;17.10;99.90;;;;;;5070877;28;20446;-49
2023/08/04 01:25:15;;;;;;;2.45;1.42;;;17.10;99.90;;;;;;5069529;28;20033;-49
2023/08/04 01:27:48;;;;;;;3.70;1.67;;;17.10;99.90;;;;;;5070735;28;20063;-49
2023/08/04 01:30:20;;;;;;;3.20;1.33;;;17.10;99.90;;;;;;5073016;28;20016;-47
2023/08/04 01:32:46;;;;;;;6.57;1.48;;;17.10;99.90;;;;;;5074549;28;20028;-48
2023/08/04 01:35:13;;;;;;;3.80;1.83;;;17.10;99.90;;;;;;5074548;28;20021;-49
2023/08/04 01:37:38;;;;;;;3.97;1.63;;;17.10;99.90;;;;;;5074500;28;20028;-48
2023/08/04 01:40:04;;;;;;;4.75;1.98;;;17.10;99.90;;;;;;5072796;28;20020;-48
2023/08/04 01:42:30;;;;;;;3.38;1.73;;;17.10;99.90;;;;;;5074431;28;20104;-51
2023/08/04 01:44:55;;;;;;;11.25;1.67;;;17.10;99.90;;;;;;5074204;28;20158;-49
2023/08/04 01:47:21;;;;;;;2.70;1.92;;;17.10;99.90;;;;;;5072717;28;20020;-51
2023/08/04 01:49:46;;;;;;;4.22;1.80;;;17.10;99.90;;;;;;5072678;28;20037;-48
2023/08/04 01:52:12;;;;;;;3.60;1.60;;;17.10;99.90;;;;;;5074203;28;20051;-47
2023/08/04 01:54:37;;;;;;;5.15;1.95;;;17.00;99.90;;;;;;5074126;28;20483;-49
2023/08/04 01:57:03;;;;;;;1.38;1.27;;;16.90;99.90;;;;;;5074086;28;20391;-47
2023/08/04 01:59:28;;;;;;;1.88;1.45;;;16.90;99.90;;;;;;5073356;28;20021;-47
2023/08/04 02:01:54;;;;;;;2.88;1.60;;;16.80;99.90;;;;;;5074082;28;20036;-47
2023/08/04 02:04:19;;;;;;;2.20;1.75;;;16.80;99.90;;;;;;5072859;28;20017;-51
2023/08/04 02:06:45;;;;;;;2.65;2.00;;;16.90;99.90;;;;;;5073805;28;20065;-46
2023/08/04 02:09:12;;;;;;;4.30;1.60;;;16.90;99.90;;;;;;5072499;28;20070;-47
2023/08/04 02:11:37;;;;;;;2.30;1.52;;;16.80;99.90;;;;;;5074054;28;20066;-51
2023/08/04 02:14:03;;;;;;;2.45;1.40;;;16.90;99.90;;;;;;5074830;28;20392;-47
2023/08/04 02:16:28;;;;;;;2.15;1.85;;;16.80;99.90;;;;;;5074912;28;20036;-48
2023/08/04 02:19:03;;;;;;;2.20;1.45;;;16.90;99.90;;;;;;5074539;28;20036;-49
2023/08/04 02:21:29;;;;;;;;;;;16.90;99.90;;;;;;5074045;28;20502;-52
2023/08/04 02:23:55;;;;;;;1.95;1.40;;;16.90;99.90;;;;;;5073589;28;19905;-50
2023/08/04 02:26:20;;;;;;;7.25;1.80;;;16.80;99.90;;;;;;5071939;28;20029;-52
2023/08/04 02:28:46;;;;;;;2.17;1.42;;;16.80;99.90;;;;;;5073230;28;20392;-50
2023/08/04 02:31:11;;;;;;;4.57;1.58;;;16.80;99.90;;;;;;5073594;28;20110;-49
2023/08/04 02:33:37;;;;;;;2.83;1.40;;;16.80;99.90;;;;;;5073487;28;20032;-51
2023/08/04 02:36:03;;;;;;;2.00;1.48;;;16.80;99.90;;;;;;5071988;28;20048;-54
2023/08/04 02:38:28;;;;;;;6.55;2.28;;;16.80;99.90;;;;;;5073139;28;20460;-47
2023/08/04 02:41:01;;;;;;;5.90;2.17;;;16.70;99.90;;;;;;5072991;28;20064;-46
2023/08/04 02:43:26;;;;;;;5.78;2.10;;;16.80;99.90;;;;;;5073202;28;20025;-47
2023/08/04 02:45:51;;;;;;;2.63;1.67;;;16.90;99.90;;;;;;5073039;28;20028;-48
2023/08/04 02:48:17;;;;;;;5.55;1.83;;;16.90;99.90;;;;;;5073042;28;20012;-51
2023/08/04 02:50:43;;;;;;;2.88;1.70;;;16.90;99.90;;;;;;5072738;28;20403;-49
2023/08/04 02:53:09;;;;;;;3.60;2.00;;;16.90;99.90;;;;;;5073137;28;20100;-52
2023/08/04 02:55:34;;;;;;;4.10;1.73;;;16.90;99.90;;;;;;5072978;28;20030;-50
2023/08/04 02:57:59;;;;;;;4.05;1.73;;;16.90;99.90;;;;;;5072668;28;20376;-48
2023/08/04 03:00:26;;;;;;;2.67;1.48;;;16.80;99.90;;;;;;5072743;28;20039;-47
2023/08/04 03:02:52;;;;;;;1.55;1.25;;;16.70;99.90;;;;;;5071672;28;20032;-52
2023/08/04 03:05:17;;;;;;;3.58;1.70;;;16.70;99.90;;;;;;5073154;28;20471;-50
2023/08/04 03:07:43;;;;;;;1.60;1.50;;;16.70;99.90;;;;;;5072508;28;20480;-47
2023/08/04 03:10:08;;;;;;;2.08;1.40;;;16.80;99.90;;;;;;5072444;28;20075;-48
2023/08/04 03:12:34;;;;;;;2.67;1.40;;;16.80;99.90;;;;;;5072706;28;20502;-51
2023/08/04 03:14:59;;;;;;;1.45;1.35;;;16.80;99.90;;;;;;5071330;28;20021;-49
2023/08/04 03:17:25;;;;;;;5.05;2.88;;;16.80;99.90;;;;;;5071452;28;20027;-50
2023/08/04 03:19:50;;;;;;;2.13;1.80;;;16.70;99.90;;;;;;5072540;28;20390;-49
2023/08/04 03:22:16;;;;;;;2.90;1.83;;;16.70;99.90;;;;;;5072391;28;20442;-47
2023/08/04 03:24:41;;;;;;;3.78;2.40;;;16.70;99.90;;;;;;5071093;28;20046;-51
2023/08/04 03:27:07;;;;;;;1.90;1.75;;;16.60;99.90;;;;;;5072143;28;20070;-49
2023/08/04 03:29:32;;;;;;;1.23;1.17;;;16.60;99.90;;;;;;5071975;28;20029;-52
2023/08/04 03:31:58;;;;;;;2.17;1.45;;;16.60;99.90;;;;;;5072236;28;20020;-47
2023/08/04 03:34:23;;;;;;;1.50;1.40;;;16.60;99.90;;;;;;5072320;28;20495;-48
2023/08/04 03:36:49;;;;;;;2.33;1.65;;;16.60;99.90;;;;;;5071966;28;20028;-53
2023/08/04 03:39:15;;;;;;;1.95;1.42;;;16.60;99.90;;;;;;5071774;28;20541;-47
2023/08/04 03:41:40;;;;;;;3.85;1.63;;;16.50;99.90;;;;;;5072045;28;20032;-49
2023/08/04 03:44:06;;;;;;;2.63;1.48;;;16.50;99.90;;;;;;5070643;28;20069;-47
2023/08/04 03:46:31;;;;;;;2.38;1.63;;;16.50;99.90;;;;;;5071907;28;20111;-51
2023/08/04 03:48:57;;;;;;;1.85;1.50;;;16.50;99.90;;;;;;5071695;28;20101;-50
2023/08/04 03:51:22;;;;;;;1.65;1.50;;;16.50;99.90;;;;;;5070359;28;20028;-47
2023/08/04 03:53:48;;;;;;;3.28;1.67;;;16.50;99.90;;;;;;5071537;28;20013;-47
2023/08/04 03:56:14;;;;;;;5.60;1.98;;;16.50;99.90;;;;;;5071966;28;20031;-47
2023/08/04 03:58:39;;;;;;;2.90;1.77;;;16.50;99.90;;;;;;5071313;28;20036;-50
2023/08/04 04:01:05;;;;;;;2.65;1.88;;;16.50;99.90;;;;;;5071860;28;20711;-52
2023/08/04 04:03:30;;;;;;;2.88;2.15;;;16.50;99.90;;;;;;5071645;28;20031;-50
2023/08/04 04:05:56;;;;;;;6.35;2.58;;;16.50;99.90;;;;;;5071588;28;20542;-50
2023/08/04 04:08:21;;;;;;;4.75;2.10;;;16.50;99.90;;;;;;5071555;28;20082;-49
2023/08/04 04:10:50;;;;;;;5.85;2.33;;;16.50;99.90;;;;;;5071379;28;20020;-49
2023/08/04 04:13:15;;;;;;;2.75;2.03;;;16.50;99.90;;;;;;5070557;28;20029;-48
2023/08/04 04:15:41;;;;;;;4.55;2.17;;;16.50;99.90;;;;;;5071532;28;20021;-52
2023/08/04 04:18:06;;;;;;;4.43;2.67;;;16.50;99.90;;;;;;5071408;28;20039;-55
2023/08/04 04:20:32;;;;;;;3.05;1.95;;;16.50;99.90;;;;;;5071160;28;20032;-49
2023/08/04 04:22:57;;;;;;;2.70;2.50;;;16.50;99.90;;;;;;5071533;28;20545;-51
2023/08/04 04:25:23;;;;;;;4.07;2.40;;;16.50;99.90;;;;;;5071345;28;20048;-49
2023/08/04 04:27:48;;;;;;;5.63;2.70;;;16.50;99.90;;;;;;5071289;28;20063;-53
2023/08/04 04:30:14;;;;;;;5.70;2.45;;;16.50;99.90;;;;;;5071122;28;20032;-50
2023/08/04 04:32:39;;;;;;;5.00;2.75;;;16.50;99.90;;;;;;5071355;28;20137;-50
2023/08/04 04:35:05;;;;;;;4.10;3.30;;;16.40;99.90;;;;;;5071355;28;20029;-50
2023/08/04 04:37:31;;;;;;;6.60;3.03;;;16.40;99.90;;;;;;5071263;28;20028;-49
2023/08/04 04:39:56;;;;;;;6.80;4.47;;;16.30;99.90;;;;;;5070973;28;20073;-50
2023/08/04 04:42:22;;;;;;;8.43;4.28;;;16.20;99.90;;;;;;5071387;28;20024;-48
2023/08/04 04:44:47;;;;;;;3.92;3.42;;;16.20;99.90;;;;;;5070090;28;20032;-48
2023/08/04 04:47:13;;;;;;;6.82;4.63;;;16.20;99.90;;;;;;5071102;28;20029;-47
2023/08/04 04:49:39;;;;;;;10.13;5.05;;;16.10;99.90;;;;;;5070907;28;20031;-49
2023/08/04 04:52:05;;;;;;;5.30;4.00;;;16.20;99.90;;;;;;5071404;28;20017;-46
2023/08/04 04:54:31;;;;;;;6.10;4.55;;;16.10;99.90;;;;;;5071235;28;20028;-49
2023/08/04 04:56:56;;;;;;;9.75;5.13;;;16.10;99.90;;;;;;5071485;28;20033;-47
2023/08/04 04:59:22;;;;;;;6.65;4.47;;;16.10;99.90;;;;;;5070551;28;20039;-52
2023/08/04 05:01:47;;;;;;;7.40;4.35;;;16.10;99.90;;;;;;5071129;28;20025;-48
2023/08/04 05:04:13;;;;;;;5.07;4.57;;;16.00;99.90;;;;;;5073490;28;20533;-49
2023/08/04 05:06:39;;;;;;;9.40;5.20;;;16.00;99.90;;;;;;5074984;28;20067;-51
2023/08/04 05:09:04;;;;;;;8.25;4.80;;;16.00;99.90;;;;;;5075011;28;20044;-51
2023/08/04 05:11:30;;;;;;;12.70;4.78;;;16.00;99.90;;;;;;5073896;28;20499;-47
2023/08/04 05:13:56;;;;;;;7.55;5.00;;;16.00;99.90;;;;;;5074923;28;20025;-47
2023/08/04 05:16:21;;;;;;;9.85;5.75;;;16.00;99.90;;;;;;5073554;28;20032;-50
2023/08/04 05:18:47;;;;;;;7.35;4.95;;;16.10;99.90;;;;;;5074466;28;20024;-47
2023/08/04 05:21:12;;;;;;;8.82;4.85;;;16.00;99.90;;;;;;5074665;28;20100;-51
2023/08/04 05:23:38;;;;;;;7.18;5.25;;;16.00;99.90;;;;;;5074664;28;20388;-49
2023/08/04 05:26:04;;;;;;;8.95;5.20;;;16.00;99.90;;;;;;5074757;28;20064;-49
2023/08/04 05:28:32;;;;;;;7.25;6.30;;;16.00;99.90;;;;;;5074208;28;20020;-47
2023/08/04 05:31:01;;;;;;;5.22;4.70;;;16.00;99.90;;;;;;5074456;28;20095;-47
2023/08/04 05:33:27;;;;;;;6.10;5.50;;;16.00;99.90;;;;;;5074511;28;20021;-47
2023/08/04 05:35:53;;;;;;;6.20;4.70;;;16.10;99.90;;;;;;5074422;28;20025;-50
2023/08/04 05:38:19;;;;;;;7.47;4.88;;;16.10;99.90;;;;;;5074498;28;20024;-48
2023/08/04 05:40:46;;;;;;;12.70;5.32;;;16.00;99.90;;;;;;5074438;28;20511;-53
2023/08/04 05:43:12;;;;;;;4.65;4.07;;;16.00;99.90;;;;;;5074199;28;20111;-48
2023/08/04 05:45:40;;;;;;;7.95;4.47;;;16.00;99.90;;;;;;5074261;28;20510;-47
2023/08/04 05:48:06;;;;;;;7.32;4.75;;;16.10;99.90;;;;;;5074063;28;20032;-49
2023/08/04 05:50:32;;;;;;;4.68;4.13;;;16.10;99.90;;;;;;5073931;28;20027;-48
2023/08/04 05:52:58;;;;;;;8.85;4.03;;;16.10;99.90;;;;;;5072971;28;20029;-47
2023/08/04 05:55:24;;;;;;;12.48;4.45;;;16.10;99.90;;;;;;5074245;28;20021;-46
2023/08/04 05:57:52;;;;;;;7.03;4.22;;;16.20;99.90;;;;;;5081465;22;20037;-53
2023/08/04 06:00:18;;;;;;;5.07;3.75;;;16.20;99.90;;;;;;5047261;28;20432;-54
2023/08/04 06:02:45;;;;;;;9.50;4.60;;;16.20;99.90;;;;;;5048498;28;20021;-54
2023/08/04 06:05:11;;;;;;;8.20;4.32;;;16.20;99.90;;;;;;5030821;28;20408;-55
2023/08/04 06:07:37;;;;;;;7.03;4.57;;;16.30;99.90;;;;;;5048464;28;20040;-53
2023/08/04 06:10:03;;;;;;;4.97;4.30;;;16.30;99.90;;;;;;5047211;28;20516;-53
2023/08/04 06:12:28;;;;;;;5.43;3.90;;;16.20;99.90;;;;;;5029625;28;20053;-54
2023/08/04 06:14:55;;;;;;;6.13;4.20;;;16.30;99.90;;;;;;5047780;28;20026;-53
2023/08/04 06:17:21;;;;;;;7.60;4.70;;;16.30;99.90;;;;;;5047894;28;20029;-53
2023/08/04 06:19:46;;;;;;;7.90;5.25;;;16.30;99.90;;;;;;5047464;28;20039;-53
2023/08/04 06:22:15;;;;;;;11.98;5.50;;;16.90;99.90;;;;;;5048166;28;20029;-54
2023/08/04 06:24:41;;;;;;;10.15;5.13;;;16.50;99.90;;;;;;5030583;28;20038;-51
2023/08/04 06:27:07;;;;;;;7.22;5.10;;;16.50;99.90;;;;;;5048840;28;20026;-49
2023/08/04 06:29:38;;;;;;;8.02;5.20;;;16.50;99.90;;;;;;5048182;28;20027;-49
2023/08/04 06:32:07;;;;;;;7.45;4.85;;;16.50;99.90;;;;;;5030113;28;20093;-53
2023/08/04 06:34:35;;;;;;;5.85;4.82;;;16.50;99.90;;;;;;5030738;28;20025;-51
2023/08/04 06:37:01;;;;;;;7.63;5.30;;;16.50;99.90;;;;;;5028783;28;20145;-48
2023/08/04 06:39:27;;;;;;;6.68;5.55;;;16.60;99.90;;;;;;5047819;28;20045;-52
2023/08/04 06:41:52;;;;;;;8.15;4.97;;;16.70;99.90;;;;;;5029582;28;20022;-56
2023/08/04 06:44:18;;;;;;;6.57;5.90;;;16.50;99.90;;;;;;5046857;28;20055;-49
2023/08/04 06:46:44;;;;;;;7.53;5.03;;;16.50;99.90;;;;;;5047355;28;20377;-52
2023/08/04 06:49:09;;;;;;;7.75;5.40;;;16.60;99.90;;;;;;5047770;28;20227;-48
2023/08/04 06:51:35;;;;;;;9.65;5.13;;;16.50;99.90;;;;;;5047689;28;20392;-52
2023/08/04 06:54:01;;;;;;;8.00;6.03;;;16.50;99.90;;;;;;5029602;28;20089;-55
2023/08/04 06:56:26;;;;;;;8.25;6.13;;;16.50;99.90;;;;;;5047107;28;20032;-55
2023/08/04 06:58:51;;;;;;;7.55;5.78;;;16.50;99.90;;;;;;5045333;28;20068;-51
2023/08/04 07:01:17;;;;;;;9.40;6.70;;;16.60;99.90;;;;;;5047354;28;20033;-51
2023/08/04 07:03:44;;;;;;;9.85;6.78;;;16.60;99.90;;;;;;5029541;28;20029;-56
2023/08/04 07:06:10;;;;;;;11.05;6.97;;;16.60;99.90;;;;;;5029134;28;20520;-54
2023/08/04 07:08:36;;;;;;;10.77;7.68;;;16.60;99.90;;;;;;5028954;28;20397;-54
2023/08/04 07:11:01;;;;;;;10.07;7.47;;;16.60;99.90;;;;;;5046738;28;20031;-53
2023/08/04 07:13:29;;;;;;;8.38;6.63;;;16.70;99.90;;;;;;5028813;28;20018;-55
2023/08/04 07:15:56;;;;;;;12.27;7.63;;;16.70;99.90;;;;;;5046209;28;20017;-55
2023/08/04 07:18:21;;;;;;;7.60;6.50;;;16.60;99.90;;;;;;5028216;28;20022;-51
2023/08/04 07:20:47;;;;;;;7.25;6.00;;;16.70;99.90;;;;;;5045905;28;20048;-58
2023/08/04 07:23:13;;;;;;;10.85;6.78;;;16.60;99.90;;;;;;5028564;28;20029;-54
2023/08/04 07:25:38;;;;;;;11.90;7.18;;;16.70;99.90;;;;;;5045892;28;20290;-58
2023/08/04 07:28:04;;;;;;;9.07;7.35;;;16.70;99.90;;;;;;5027744;28;20366;-53
2023/08/04 07:30:30;;;;;;;9.13;6.72;;;16.70;99.90;;;;;;5045912;28;20024;-53
2023/08/04 07:32:55;;;;;;;6.55;5.75;;;16.70;99.90;;;;;;5029081;28;20030;-53
2023/08/04 07:35:21;;;;;;;9.65;5.50;;;16.70;99.90;;;;;;5029094;28;20021;-51
2023/08/04 07:37:46;;;;;;;6.03;5.43;;;16.90;99.90;;;;;;5045547;28;20048;-54
2023/08/04 07:40:13;;;;;;;5.75;5.00;;;16.80;99.90;;;;;;5045848;28;20040;-55
2023/08/04 07:42:39;;;;;;;7.18;5.30;;;16.70;99.90;;;;;;5046444;28;20025;-51
2023/08/04 07:45:05;;;;;;;8.75;5.50;;;16.80;99.90;;;;;;5046559;28;20029;-56
2023/08/04 07:47:30;;;;;;;6.25;5.30;;;16.80;99.90;;;;;;5044976;28;20065;-51
2023/08/04 07:49:56;;;;;;;9.73;5.85;;;16.80;99.90;;;;;;5045333;28;20029;-52
2023/08/04 07:52:21;;;;;;;5.82;5.30;;;16.80;99.90;;;;;;5028392;28;20071;-49
2023/08/04 07:54:47;;;;;;;7.55;5.20;;;17.00;99.90;;;;;;5045486;28;20033;-51
2023/08/04 07:57:13;;;;;;;6.03;5.43;;;17.00;99.90;;;;;;5045229;28;20048;-53
2023/08/04 07:59:38;;;;;;;6.53;5.88;;;17.10;99.90;;;;;;5044828;28;20033;-54
2023/08/04 08:02:05;;;;;;;9.10;5.75;;;17.20;99.90;;;;;;5045299;28;20030;-53
2023/08/04 08:04:30;;;;;;;6.75;5.05;;;17.20;99.90;;;;;;5044739;28;20029;-56
2023/08/04 08:06:56;;;;;;;8.80;4.97;;;17.00;99.90;;;;;;5027476;28;20064;-52
2023/08/04 08:09:22;;;;;;;7.22;5.60;;;16.90;99.90;;;;;;5045101;28;20032;-53
2023/08/04 08:11:47;;;;;;;7.03;5.63;;;16.90;99.90;;;;;;5027704;28;20022;-54
2023/08/04 08:14:13;;;;;;;7.88;5.32;;;16.90;99.90;;;;;;5045049;28;20414;-55
2023/08/04 08:16:38;;;;;;;7.25;5.47;;;16.90;99.90;;;;;;5043418;28;20030;-53
2023/08/04 08:19:04;;;;;;;9.90;6.43;;;16.80;99.90;;;;;;5039277;28;20089;-51
2023/08/04 08:21:31;;;;;;;7.35;5.85;;;16.90;99.90;;;;;;5022606;28;20037;-52
2023/08/04 08:23:56;;;;;;;6.95;6.25;;;16.90;99.90;;;;;;5038601;28;20025;-48
2023/08/04 08:26:22;;;;;;;8.32;6.28;;;16.90;99.90;;;;;;5016651;28;20205;-51
2023/08/04 08:28:47;;;;;;;5.65;5.15;;;16.90;99.90;;;;;;5017266;28;20053;-55
2023/08/04 08:31:13;;;;;;;6.32;4.95;;;17.00;99.90;;;;;;5042064;28;20030;-51
2023/08/04 08:33:39;;;;;;;6.90;6.20;;;17.00;99.90;;;;;;5045057;28;20056;-53
2023/08/04 08:36:06;;;;;;;11.35;7.88;;;17.10;99.90;;;;;;5038644;28;20509;-51
2023/08/04 08:38:31;;;;;;;6.95;5.57;;;17.10;99.90;;;;;;5019305;28;20029;-48
2023/08/04 08:40:57;;;;;;;9.23;6.22;;;17.20;99.90;;;;;;5004594;28;20434;-51
2023/08/04 08:43:22;;;;;;;7.38;5.97;;;17.30;99.90;;;;;;5038495;28;20060;-53
2023/08/04 08:45:50;;;;;;;7.15;6.00;;;17.30;99.90;;;;;;5045047;28;20030;-53
2023/08/04 08:48:16;;;;;;;8.60;6.00;;;17.50;99.90;;;;;;5045344;28;20101;-54
2023/08/04 08:50:47;;;;;;;7.38;6.18;;;17.60;99.90;;;;;;5045652;28;20056;-55
2023/08/04 08:53:13;;;;;;;10.18;6.15;;;17.80;99.90;;;;;;5046079;28;20017;-53
2023/08/04 08:55:40;;;;;;;9.15;6.93;;;17.80;99.90;;;;;;5029092;28;20044;-57
2023/08/04 08:58:07;;;;;;;9.25;6.57;;;18.00;99.90;;;;;;5045842;28;20044;-51
2023/08/04 09:00:34;;;;;;;6.40;5.80;;;18.10;99.90;;;;;;5045806;28;20017;-50
2023/08/04 09:03:02;;;;;;;6.45;5.93;;;18.20;99.90;;;;;;5045057;28;20030;-53
2023/08/04 09:05:30;;;;;;;6.57;5.88;;;18.20;99.90;;;;;;5025605;28;20026;-49
2023/08/04 09:07:56;;;;;;;7.50;5.85;;;18.20;99.90;;;;;;5036990;28;20385;-50
2023/08/04 09:10:21;;;;;;;8.85;6.03;;;18.00;99.90;;;;;;5036532;28;20029;-51
2023/08/04 09:12:48;;;;;;;7.45;5.63;;;18.10;99.90;;;;;;5035589;28;20026;-53
2023/08/04 09:15:14;;;;;;;6.55;5.85;;;18.10;99.90;;;;;;5036158;28;20021;-48
2023/08/04 09:17:40;;;;;;;6.68;5.45;;;18.00;99.90;;;;;;5018448;28;20029;-52
2023/08/04 09:20:08;;;;;;;8.10;5.97;;;17.90;99.90;;;;;;5019035;28;20036;-51
2023/08/04 09:22:44;;;;;;;7.63;5.88;;;17.90;99.90;;;;;;5035533;28;20451;-53
2023/08/04 09:25:10;;;;;;;7.05;5.93;;;17.90;99.90;;;;;;5045288;28;20040;-56
2023/08/04 09:27:39;;;;;;;10.05;6.25;;;17.90;99.90;;;;;;5044449;28;20029;-54
2023/08/04 09:30:11;;;;;;;9.30;5.70;;;17.80;99.90;;;;;;5043913;28;20025;-54
2023/08/04 09:32:49;;;;;;;11.50;5.72;;;17.80;99.90;;;;;;5043217;28;20026;-52
2023/08/04 09:35:15;;;;;;;7.30;5.80;;;17.70;99.90;;;;;;5043180;28;20018;-53
2023/08/04 09:37:42;;;;;;;6.15;5.50;;;17.80;99.90;;;;;;5026314;28;20036;-53
2023/08/04 09:40:19;;;;;;;6.18;5.55;;;18.00;99.90;;;;;;5044937;28;20093;-52
2023/08/04 09:42:45;;;;;;;8.50;5.82;;;18.10;99.90;;;;;;5044638;28;20048;-56
2023/08/04 09:45:15;;;;;;;17.17;5.97;;;18.20;99.90;;;;;;5044976;28;20026;-55
2023/08/04 09:47:47;;;;;;;7.68;4.82;;;18.40;99.90;;;;;;5021565;28;20497;-49
2023/08/04 09:50:12;;;;;;;5.80;5.05;;;18.60;99.90;;;;;;5014784;28;20021;-55
2023/08/04 09:52:38;;;;;;;52.20;34.70;;;18.60;99.90;;;;;;5021479;28;20022;-49
2023/08/04 09:55:08;;;;;;;10.50;6.78;;;18.70;99.90;;;;;;5036314;28;20040;-49
2023/08/04 09:57:34;;;;;;;8.23;5.63;;;18.70;99.90;;;;;;5036289;28;20038;-52
2023/08/04 10:00:00;;;;;;;10.65;5.28;;;18.80;99.90;;;;;;5018633;28;20040;-50
2023/08/04 10:02:26;;;;;;;7.40;4.40;;;18.80;99.90;;;;;;5037598;28;20400;-53
2023/08/04 10:04:52;;;;;;;5.30;4.32;;;18.90;99.90;;;;;;5019627;28;20026;-49
2023/08/04 10:07:19;;;;;;;5.80;4.30;;;19.00;99.90;;;;;;5038658;28;20032;-49
2023/08/04 10:09:46;;;;;;;7.40;4.70;;;18.90;99.90;;;;;;5034532;28;20017;-55
2023/08/04 10:12:13;;;;;;;7.47;4.63;;;18.90;99.90;;;;;;5033538;28;20056;-48
2023/08/04 10:14:39;;;;;;;9.32;5.03;;;19.00;99.90;;;;;;5034249;28;20014;-52
2023/08/04 10:17:06;;;;;;;7.30;4.57;;;19.10;99.90;;;;;;5034997;28;20037;-52
2023/08/04 10:19:33;;;;;;;7.63;5.10;;;19.20;99.90;;;;;;5033894;28;20032;-54
2023/08/04 10:22:17;;;;;;;9.73;5.15;;;19.20;99.90;;;;;;5018694;28;20480;-53
2023/08/04 10:24:43;;;;;;;8.18;5.10;;;19.30;99.90;;;;;;5034686;28;20484;-53
2023/08/04 10:27:13;;;;;;;7.47;5.00;;;19.30;99.90;;;;;;5035023;28;20029;-49
2023/08/04 10:29:40;;;;;;;8.65;4.93;;;19.30;99.90;;;;;;5036607;28;20029;-51
2023/08/04 10:32:08;;;;;;;11.45;4.72;;;19.20;99.90;;;;;;5036675;28;20026;-51
2023/08/04 10:34:44;;;;;;;12.75;5.93;;;19.00;99.90;;;;;;5035617;28;20048;-55
2023/08/04 10:37:17;;;;;;;8.20;5.43;;;19.00;99.90;;;;;;5017110;28;20408;-52
2023/08/04 10:39:48;;;;;;;9.25;5.95;;;19.00;99.90;;;;;;5034792;28;20435;-54
2023/08/04 10:42:22;;;;;;;7.05;5.63;;;18.90;99.90;;;;;;5039176;28;20029;-52
2023/08/04 10:44:55;;;;;;;8.35;5.70;;;18.90;99.90;;;;;;5040500;28;20053;-51
2023/08/04 10:47:44;;;;;;;12.90;7.03;;;18.90;99.90;;;;;;5005391;28;20026;-54
2023/08/04 10:50:10;;;;;;;17.42;5.05;;;19.00;99.90;;;;;;5009033;28;20094;-54
2023/08/04 10:52:37;;;;;;;12.63;5.80;;;18.80;99.90;;;;;;5043436;28;20108;-49
2023/08/04 10:55:06;;;;;;;9.80;4.90;;;18.70;99.90;;;;;;5036100;28;20348;-49
2023/08/04 10:57:33;;;;;;;7.28;5.60;;;18.90;99.90;;;;;;5028796;28;20117;-54
2023/08/04 10:59:59;;;;;;;8.90;4.55;;;19.00;99.90;;;;;;5026911;28;20449;-51
2023/08/04 11:02:26;;;;;;;8.85;5.05;;;19.00;99.90;;;;;;5029196;28;20052;-56
2023/08/04 11:04:52;;;;;;;10.07;4.85;;;19.20;99.90;;;;;;5044144;28;20048;-48
2023/08/04 11:07:19;;;;;;;9.27;4.63;;;19.80;99.90;;;;;;5042734;28;20055;-49
2023/08/04 11:09:46;;;;;;;9.35;5.18;;;20.00;99.90;;;;;;5017680;28;20057;-54
2023/08/04 11:12:13;;;;;;;10.18;4.90;;;20.20;99.90;;;;;;5038203;28;20036;-53
2023/08/04 11:14:38;;;;;;;4.65;4.22;;;20.60;99.90;;;;;;5028018;28;20069;-53
2023/08/04 11:17:15;;;;;;;7.15;4.50;;;20.80;99.90;;;;;;5015001;28;20034;-50
2023/08/04 11:19:49;;;;;;;8.07;5.22;;;20.90;99.90;;;;;;5025967;28;20104;-50
2023/08/04 11:22:20;;;;;;;12.32;5.93;;;20.90;99.90;;;;;;5033523;28;20409;-54
2023/08/04 11:24:46;;;;;;;4.18;3.78;;;20.90;99.90;;;;;;5033390;28;20040;-51
2023/08/04 11:27:14;;;;;;;8.15;3.97;;;20.80;99.90;;;;;;5037526;28;20029;-51
2023/08/04 11:29:40;;;;;;;6.05;4.15;;;20.80;99.90;;;;;;5038160;28;20328;-52
2023/08/04 11:32:17;;;;;;;7.72;4.78;;;20.90;99.90;;;;;;5020015;28;20029;-50
2023/08/04 11:34:44;;;;;;;6.97;4.30;;;21.00;99.90;;;;;;5037725;28;20451;-54
2023/08/04 11:37:10;;;;;;;9.20;4.13;;;21.20;99.90;;;;;;5019814;28;20033;-47
2023/08/04 11:39:37;;;;;;;8.40;3.72;;;21.30;99.90;;;;;;5036994;28;20033;-52
2023/08/04 11:42:03;;;;;;;5.18;3.72;;;21.40;99.90;;;;;;5037540;28;20056;-52
2023/08/04 11:44:30;;;;;;;5.47;3.60;;;21.40;99.90;;;;;;5036601;28;20064;-52
2023/08/04 11:46:56;;;;;;;6.65;3.63;;;21.30;99.90;;;;;;5036881;28;20041;-50
2023/08/04 11:49:22;;;;;;;8.25;3.55;;;21.20;99.90;;;;;;5035933;28;20064;-52
2023/08/04 11:51:48;;;;;;;5.97;3.70;;;21.10;99.90;;;;;;5036569;28;20021;-50
2023/08/04 11:54:19;;;;;;;6.68;3.33;;;21.10;99.90;;;;;;5037268;28;20442;-50
2023/08/04 11:56:44;;;;;;;5.60;3.67;;;21.10;99.90;;;;;;5037426;28;20025;-52
2023/08/04 11:59:11;;;;;;;5.32;3.60;;;21.10;99.90;;;;;;5037612;28;20061;-49
2023/08/04 12:01:36;;;;;;;7.70;3.72;;;20.90;99.90;;;;;;5036804;28;20029;-50
2023/08/04 12:04:18;;;;;;;6.40;3.88;;;20.80;99.90;;;;;;5037693;28;20049;-51
2023/08/04 12:06:43;;;;;;;4.70;3.72;;;20.80;99.90;;;;;;5037006;28;20017;-53
2023/08/04 12:09:11;;;;;;;5.30;3.60;;;20.80;99.90;;;;;;5036528;28;20021;-49
2023/08/04 12:11:53;;;;;;;3.72;3.38;;;20.70;99.90;;;;;;5037669;28;20066;-53
2023/08/04 12:14:20;;;;;;;4.60;3.08;;;20.70;99.90;;;;;;5018716;28;20079;-50
2023/08/04 12:16:52;;;;;;;4.05;2.65;;;20.70;99.90;;;;;;5037022;28;20029;-49
2023/08/04 12:19:20;;;;;;;3.67;2.83;;;20.50;99.90;;;;;;5018891;28;20021;-55
2023/08/04 12:21:46;;;;;;;7.03;2.80;;;20.50;99.90;;;;;;5036802;28;20036;-49
2023/08/04 12:24:12;;;;;;;5.75;3.40;;;20.50;99.90;;;;;;5037730;28;20026;-53
2023/08/04 12:26:38;;;;;;;6.10;2.78;;;20.50;99.90;;;;;;5037657;28;20057;-55
2023/08/04 12:29:03;;;;;;;2.42;2.15;;;20.70;99.90;;;;;;5035997;28;20029;-53
2023/08/04 12:31:29;;;;;;;5.07;2.13;;;20.70;99.90;;;;;;5036927;28;20034;-52
2023/08/04 12:33:54;;;;;;;2.67;2.13;;;20.80;99.90;;;;;;5037596;28;20021;-54
2023/08/04 12:36:20;;;;;;;5.07;2.50;;;20.90;99.90;;;;;;5037185;28;20022;-53
2023/08/04 12:38:46;;;;;;;4.75;3.08;;;21.00;99.90;;;;;;5036637;28;20419;-51
2023/08/04 12:41:12;;;;;;;6.63;3.08;;;21.20;99.90;;;;;;5037013;28;20370;-50
2023/08/04 12:43:38;;;;;;;3.50;3.20;;;21.30;99.90;;;;;;5037412;28;20030;-55